createdAt,value
2022-12-15T00:02:21.145Z,108
2022-12-15T00:04:49.324Z,116
2022-12-15T00:07:17.549Z,115
2022-12-15T00:09:45.773Z,109
2022-12-15T00:16:25.301Z,115
2022-12-15T00:25:41.180Z,113
2022-12-15T00:29:23.561Z,117
2022-12-15T00:35:34.188Z,122
2022-12-15T00:38:02.445Z,121
2022-12-15T00:41:44.793Z,116
2022-12-15T00:44:15.924Z,117
2022-12-15T00:46:41.383Z,112
2022-12-15T00:50:23.671Z,116
2022-12-15T00:53:29.294Z,117
2022-12-15T00:56:34.310Z,114
2022-12-15T01:00:16.648Z,126
2022-12-15T01:03:26.236Z,116
2022-12-15T01:05:54.299Z,116
2022-12-15T01:08:22.552Z,119
2022-12-15T01:10:50.831Z,116
2022-12-15T01:13:19.035Z,121
2022-12-15T01:16:16.246Z,117
2022-12-15T01:19:21.445Z,108
2022-12-15T01:22:26.772Z,115
2022-12-15T01:25:32.073Z,113
2022-12-15T01:28:37.419Z,113
2022-12-15T01:32:19.761Z,108
2022-12-15T01:35:25.064Z,108
2022-12-15T01:38:30.384Z,115
2022-12-15T01:41:35.693Z,119
2022-12-15T01:45:18.101Z,120
2022-12-15T01:48:23.365Z,113
2022-12-15T01:51:28.726Z,115
2022-12-15T01:54:33.987Z,106
2022-12-15T01:58:16.364Z,101
2022-12-15T02:01:21.871Z,98
2022-12-15T02:04:26.991Z,98
2022-12-15T02:07:32.298Z,98
2022-12-15T02:10:37.598Z,98
2022-12-15T02:14:19.961Z,103
2022-12-15T02:17:17.108Z,103
2022-12-15T02:20:22.391Z,101
2022-12-15T02:23:27.984Z,107
2022-12-15T02:26:33.010Z,107
2022-12-15T02:29:38.346Z,102
2022-12-15T02:33:20.697Z,103
2022-12-15T02:36:26.017Z,92
2022-12-15T02:39:31.323Z,98
2022-12-15T02:42:36.622Z,100
2022-12-15T02:46:19.054Z,105
2022-12-15T02:49:24.327Z,99
2022-12-15T02:52:29.600Z,103
2022-12-15T02:55:34.932Z,111
2022-12-15T02:59:17.310Z,111
2022-12-15T03:02:22.730Z,105
2022-12-15T03:05:27.957Z,111
2022-12-15T03:08:33.202Z,111
2022-12-15T03:11:38.531Z,120
2022-12-15T03:15:20.889Z,110
2022-12-15T03:18:26.218Z,114
2022-12-15T03:21:31.524Z,115
2022-12-15T03:24:36.815Z,113
2022-12-15T03:28:10.995Z,116
2022-12-15T03:30:39.237Z,112
2022-12-15T03:34:21.610Z,116
2022-12-15T03:37:26.936Z,119
2022-12-15T03:40:32.241Z,115
2022-12-15T03:43:37.537Z,113
2022-12-15T03:48:34.041Z,112
2022-12-15T03:51:39.350Z,116
2022-12-15T03:55:21.730Z,106
2022-12-15T03:58:27.046Z,112
2022-12-15T04:01:32.458Z,114
2022-12-15T04:04:37.669Z,120
2022-12-15T04:08:20.022Z,118
2022-12-15T04:11:25.331Z,122
2022-12-15T04:14:30.633Z,117
2022-12-15T04:17:35.962Z,117
2022-12-15T04:21:18.452Z,123
2022-12-15T04:24:23.637Z,116
2022-12-15T04:27:28.913Z,112
2022-12-15T04:30:34.281Z,108
2022-12-15T04:33:39.695Z,113
2022-12-15T04:38:27.847Z,113
2022-12-15T04:41:33.183Z,111
2022-12-15T04:44:38.486Z,115
2022-12-15T04:48:20.843Z,117
2022-12-15T04:51:26.152Z,116
2022-12-15T04:54:31.481Z,115
2022-12-15T04:57:36.787Z,110
2022-12-15T05:01:22.396Z,108
2022-12-15T05:04:24.519Z,119
2022-12-15T05:07:29.786Z,102
2022-12-15T05:10:35.073Z,106
2022-12-15T05:14:17.423Z,111
2022-12-15T05:17:22.825Z,116
2022-12-15T05:20:28.093Z,116
2022-12-15T05:23:33.576Z,121
2022-12-15T05:26:38.676Z,127
2022-12-15T05:30:21.053Z,118
2022-12-15T05:33:26.380Z,121
2022-12-15T05:36:31.670Z,122
2022-12-15T05:39:36.968Z,123
2022-12-15T05:43:24.732Z,116
2022-12-15T05:46:24.702Z,114
2022-12-15T05:49:21.780Z,124
2022-12-15T05:52:27.087Z,129
2022-12-15T05:55:32.374Z,127
2022-12-15T05:58:43.157Z,120
2022-12-15T06:02:20.060Z,122
2022-12-15T06:05:25.394Z,125
2022-12-15T06:08:30.682Z,129
2022-12-15T06:11:35.998Z,124
2022-12-15T06:15:18.338Z,124
2022-12-15T06:18:23.688Z,111
2022-12-15T06:21:28.967Z,129
2022-12-15T06:24:34.360Z,136
2022-12-15T06:27:39.608Z,124
2022-12-15T06:31:22.018Z,119
2022-12-15T06:34:27.292Z,130
2022-12-15T06:37:32.581Z,122
2022-12-15T06:40:38.313Z,128
2022-12-15T06:44:20.318Z,127
2022-12-15T06:47:25.575Z,127
2022-12-15T06:50:22.674Z,122
2022-12-15T06:53:28.222Z,127
2022-12-15T06:56:34.532Z,135
2022-12-15T06:59:38.634Z,130
2022-12-15T07:03:21.041Z,119
2022-12-15T07:06:26.291Z,114
2022-12-15T07:09:31.653Z,127
2022-12-15T07:12:36.934Z,127
2022-12-15T07:16:19.331Z,119
2022-12-15T07:19:24.579Z,133
2022-12-15T07:22:29.919Z,124
2022-12-15T07:25:35.172Z,129
2022-12-15T07:29:22.813Z,137
2022-12-15T07:32:22.933Z,124
2022-12-15T07:35:28.201Z,125
2022-12-15T07:38:33.502Z,122
2022-12-15T07:41:38.839Z,118
2022-12-15T07:45:21.175Z,127
2022-12-15T07:50:09.511Z,124
2022-12-15T07:52:37.724Z,131
2022-12-15T07:56:20.143Z,134
2022-12-15T07:59:25.440Z,126
2022-12-15T08:02:30.884Z,128
2022-12-15T08:05:36.051Z,125
2022-12-15T08:09:18.444Z,127
2022-12-15T08:12:23.696Z,125
2022-12-15T08:15:29.029Z,115
2022-12-15T08:18:34.387Z,118
2022-12-15T08:21:39.681Z,113
2022-12-15T08:25:22.030Z,126
2022-12-15T08:28:27.324Z,122
2022-12-15T08:31:32.696Z,116
2022-12-15T08:34:37.983Z,129
2022-12-15T08:38:20.291Z,134
2022-12-15T08:41:25.644Z,135
2022-12-15T08:44:30.924Z,137
2022-12-15T08:47:36.418Z,140
2022-12-15T08:51:10.394Z,137
2022-12-15T08:53:38.713Z,137
2022-12-15T08:57:21.019Z,148
2022-12-15T09:00:26.371Z,146
2022-12-15T09:03:32.053Z,133
2022-12-15T09:06:36.966Z,133
2022-12-15T09:10:19.361Z,140
2022-12-15T09:13:24.650Z,148
2022-12-15T09:16:30.044Z,142
2022-12-15T09:19:35.239Z,137
2022-12-15T09:23:17.629Z,138
2022-12-15T09:26:23.147Z,142
2022-12-15T09:29:28.244Z,135
2022-12-15T09:32:33.598Z,151
2022-12-15T09:35:38.872Z,134
2022-12-15T09:39:21.235Z,137
2022-12-15T09:42:26.575Z,138
2022-12-15T09:45:31.894Z,138
2022-12-15T09:50:20.193Z,147
2022-12-15T09:53:53.368Z,131
2022-12-15T09:56:30.771Z,146
2022-12-15T09:59:36.089Z,146
2022-12-15T10:03:18.646Z,142
2022-12-15T10:06:27.185Z,126
2022-12-15T10:09:29.177Z,145
2022-12-15T10:12:34.398Z,159
2022-12-15T10:16:16.821Z,141
2022-12-15T10:19:22.081Z,127
2022-12-15T10:22:27.394Z,147
2022-12-15T10:25:32.712Z,140
2022-12-15T10:28:38.003Z,141
2022-12-15T10:33:35.150Z,139
2022-12-15T10:37:16.900Z,137
2022-12-15T10:40:22.277Z,157
2022-12-15T10:43:27.916Z,147
2022-12-15T10:46:32.833Z,156
2022-12-15T10:49:38.126Z,157
2022-12-15T10:53:20.450Z,156
2022-12-15T10:56:30.856Z,154
2022-12-15T10:59:31.091Z,158
2022-12-15T11:02:28.517Z,151
2022-12-15T11:05:33.536Z,158
2022-12-15T11:08:38.841Z,171
2022-12-15T11:12:21.197Z,172
2022-12-15T11:15:26.583Z,182
2022-12-15T11:18:31.867Z,192
2022-12-15T11:21:37.121Z,180
2022-12-15T11:25:19.508Z,184
2022-12-15T11:28:24.797Z,183
2022-12-15T11:31:30.111Z,186
2022-12-15T11:34:35.481Z,190
2022-12-15T11:38:17.791Z,182
2022-12-15T11:41:23.067Z,205
2022-12-15T11:44:28.392Z,187
2022-12-15T11:47:33.740Z,189
2022-12-15T11:50:39.041Z,199
2022-12-15T11:54:21.399Z,210
2022-12-15T11:57:26.717Z,202
2022-12-15T12:00:23.854Z,199
2022-12-15T12:03:29.190Z,199
2022-12-15T12:06:34.539Z,199
2022-12-15T12:10:16.856Z,188
2022-12-15T12:13:22.121Z,197
2022-12-15T12:16:27.451Z,184
2022-12-15T12:19:32.761Z,198
2022-12-15T12:22:38.085Z,182
2022-12-15T12:26:20.403Z,189
2022-12-15T12:29:25.718Z,170
2022-12-15T12:32:31.051Z,180
2022-12-15T12:35:36.365Z,189
2022-12-15T12:39:18.711Z,181
2022-12-15T12:42:24.020Z,202
2022-12-15T12:45:29.349Z,199
2022-12-15T12:48:34.678Z,193
2022-12-15T12:51:39.937Z,190
2022-12-15T12:55:22.325Z,183
2022-12-15T12:58:27.665Z,197
2022-12-15T13:01:24.891Z,191
2022-12-15T13:04:30.078Z,189
2022-12-15T13:07:35.353Z,175
2022-12-15T13:11:17.704Z,186
2022-12-15T13:14:26.251Z,187
2022-12-15T13:17:28.476Z,185
2022-12-15T13:20:33.677Z,189
2022-12-15T13:23:38.955Z,182
2022-12-15T13:27:21.373Z,195
2022-12-15T13:30:26.736Z,190
2022-12-15T13:33:32.405Z,188
2022-12-15T13:36:37.279Z,191
2022-12-15T13:40:19.631Z,186
2022-12-15T13:43:24.933Z,191
2022-12-15T13:46:30.295Z,194
2022-12-15T13:49:35.609Z,196
2022-12-15T13:53:19.384Z,197
2022-12-15T13:56:23.267Z,206
2022-12-15T13:59:28.590Z,205
2022-12-15T14:02:25.669Z,192
2022-12-15T14:05:31.090Z,195
2022-12-15T14:08:36.312Z,187
2022-12-15T14:12:18.662Z,192
2022-12-15T14:15:23.981Z,188
2022-12-15T14:18:29.276Z,190
2022-12-15T14:21:34.590Z,189
2022-12-15T14:25:16.951Z,190
2022-12-15T14:28:22.275Z,191
2022-12-15T14:31:27.619Z,202
2022-12-15T14:34:32.893Z,197
2022-12-15T14:37:38.181Z,195
2022-12-15T14:41:20.566Z,197
2022-12-15T14:44:31.175Z,197
2022-12-15T14:47:31.185Z,197
2022-12-15T14:50:36.512Z,185
2022-12-15T14:54:18.864Z,186
2022-12-15T14:57:24.193Z,193
2022-12-15T15:00:29.546Z,191
2022-12-15T15:03:26.600Z,194
2022-12-15T15:06:31.937Z,187
2022-12-15T15:09:37.245Z,187
2022-12-15T15:13:19.574Z,195
2022-12-15T15:16:24.984Z,184
2022-12-15T15:19:31.435Z,190
2022-12-15T15:22:35.559Z,177
2022-12-15T15:26:17.891Z,172
2022-12-15T15:29:23.208Z,158
2022-12-15T15:32:28.496Z,168
2022-12-15T15:35:33.865Z,170
2022-12-15T15:38:39.191Z,180
2022-12-15T15:42:21.495Z,180
2022-12-15T15:45:26.920Z,208
2022-12-15T15:48:32.395Z,189
2022-12-15T15:51:37.435Z,184
2022-12-15T15:55:20.832Z,188
2022-12-15T15:58:25.097Z,186
2022-12-15T16:03:13.611Z,171
2022-12-15T16:06:18.716Z,158
2022-12-15T16:09:24.048Z,114
2022-12-15T16:12:29.337Z,109
2022-12-15T16:15:34.696Z,100
2022-12-15T16:19:17.050Z,107
2022-12-15T16:22:22.350Z,108
2022-12-15T16:25:27.631Z,117
2022-12-15T16:28:33.438Z,105
2022-12-15T16:31:41.601Z,108
2022-12-15T16:35:20.635Z,102
2022-12-15T16:38:25.918Z,104
2022-12-15T16:41:31.255Z,115
2022-12-15T16:44:36.537Z,108
2022-12-15T16:48:18.974Z,116
2022-12-15T16:51:24.288Z,105
2022-12-15T16:54:29.513Z,108
2022-12-15T16:57:34.841Z,103
2022-12-15T17:01:17.300Z,107
2022-12-15T17:03:37.527Z,113
2022-12-15T17:07:20.292Z,109
2022-12-15T17:10:24.984Z,110
2022-12-15T17:13:36.775Z,111
2022-12-15T17:16:35.625Z,105
2022-12-15T17:20:33.199Z,110
2022-12-15T17:23:23.313Z,110
2022-12-15T17:26:29.827Z,100
2022-12-15T17:29:33.938Z,100
2022-12-15T17:32:39.214Z,97
2022-12-15T17:36:21.547Z,100
2022-12-15T17:39:26.847Z,95
2022-12-15T17:42:32.192Z,95
2022-12-15T17:45:37.500Z,98
2022-12-15T17:49:19.844Z,91
2022-12-15T17:52:25.134Z,94
2022-12-15T17:55:34.931Z,97
2022-12-15T17:58:35.809Z,98
2022-12-15T18:01:04.044Z,100
2022-12-15T18:03:32.511Z,109
2022-12-15T18:06:29.395Z,105
2022-12-15T18:09:34.692Z,98
2022-12-15T18:12:40.074Z,109
2022-12-15T18:16:22.481Z,105
2022-12-15T18:19:30.274Z,100
2022-12-15T18:22:33.100Z,100
2022-12-15T18:25:38.379Z,99
2022-12-15T18:29:20.646Z,94
2022-12-15T18:32:26.007Z,89
2022-12-15T18:35:31.278Z,91
2022-12-15T18:38:36.625Z,92
2022-12-15T18:42:18.990Z,90
2022-12-15T18:45:25.939Z,85
2022-12-15T18:48:29.622Z,85
2022-12-15T18:51:34.976Z,81
2022-12-15T18:55:17.337Z,76
2022-12-15T18:58:22.588Z,74
2022-12-15T19:01:28.028Z,77
2022-12-15T19:04:25.150Z,75
2022-12-15T19:07:30.381Z,78
2022-12-15T19:10:35.643Z,70
2022-12-15T19:14:18.012Z,80
2022-12-15T19:17:23.408Z,70
2022-12-15T19:20:28.715Z,67
2022-12-15T19:23:34.539Z,70
2022-12-15T19:27:16.363Z,68
2022-12-15T19:30:21.667Z,76
2022-12-15T19:33:26.940Z,77
2022-12-15T19:36:35.060Z,73
2022-12-15T19:39:37.553Z,78
2022-12-15T19:43:19.952Z,79
2022-12-15T19:46:25.286Z,80
2022-12-15T19:49:30.622Z,82
2022-12-15T19:52:35.871Z,76
2022-12-15T19:56:18.250Z,70
2022-12-15T19:59:23.541Z,77
2022-12-15T20:02:28.977Z,75
2022-12-15T20:05:34.183Z,79
2022-12-15T20:08:39.555Z,78
2022-12-15T20:12:21.845Z,76
2022-12-15T20:15:18.993Z,77
2022-12-15T20:18:24.291Z,76
2022-12-15T20:21:29.548Z,81
2022-12-15T20:24:34.892Z,82
2022-12-15T20:28:17.268Z,84
2022-12-15T20:31:22.663Z,86
2022-12-15T20:34:27.862Z,75
2022-12-15T20:37:33.239Z,85
2022-12-15T20:40:38.510Z,88
2022-12-15T20:44:20.966Z,84
2022-12-15T20:47:26.210Z,81
2022-12-15T20:50:31.549Z,86
2022-12-15T20:53:36.796Z,83
2022-12-15T20:57:19.238Z,86
2022-12-15T21:00:24.426Z,74
2022-12-15T21:03:30.080Z,75
2022-12-15T21:06:35.103Z,67
2022-12-15T21:10:17.555Z,71
2022-12-15T21:13:22.757Z,72
2022-12-15T21:16:20.026Z,70
2022-12-15T21:19:25.617Z,66
2022-12-15T21:22:30.531Z,69
2022-12-15T21:25:35.855Z,74
2022-12-15T21:29:18.201Z,72
2022-12-15T21:32:23.487Z,75
2022-12-15T21:35:31.837Z,68
2022-12-15T21:38:34.594Z,73
2022-12-15T21:41:39.439Z,68
2022-12-15T21:45:21.801Z,73
2022-12-15T21:48:27.104Z,64
2022-12-15T21:51:32.427Z,74
2022-12-15T21:54:37.736Z,62
2022-12-15T21:58:20.075Z,63
2022-12-15T22:01:25.504Z,63
2022-12-15T22:04:30.725Z,70
2022-12-15T22:07:36.011Z,58
2022-12-15T22:11:18.383Z,65
2022-12-15T22:14:23.654Z,59
2022-12-15T22:17:20.727Z,62
2022-12-15T22:20:26.091Z,56
2022-12-15T22:23:31.349Z,53
2022-12-15T22:26:36.706Z,55
2022-12-15T22:30:19.072Z,60
2022-12-15T22:33:24.377Z,66
2022-12-15T22:36:29.676Z,59
2022-12-15T22:39:35.018Z,58
2022-12-15T22:43:17.351Z,54
2022-12-15T22:46:22.752Z,62
2022-12-15T22:49:27.990Z,65
2022-12-15T22:52:33.313Z,60
2022-12-15T22:55:38.611Z,65
2022-12-15T22:59:21.004Z,60
2022-12-15T23:04:17.511Z,62
2022-12-15T23:07:22.776Z,59
2022-12-15T23:10:28.092Z,61
2022-12-15T23:13:33.675Z,50
2022-12-15T23:16:30.597Z,57
2022-12-15T23:19:35.808Z,55
2022-12-15T23:23:18.219Z,55
2022-12-15T23:26:23.516Z,57
2022-12-15T23:29:28.795Z,51
2022-12-15T23:32:34.108Z,51
2022-12-15T23:35:39.441Z,55
2022-12-15T23:39:21.799Z,64
2022-12-15T23:44:18.314Z,63
2022-12-15T23:46:46.566Z,50
2022-12-15T23:49:14.830Z,57
2022-12-15T23:52:20.064Z,54
2022-12-15T23:55:25.428Z,50
2022-12-15T23:58:30.724Z,55
